createdAt,value
2022-10-22T00:02:00.706Z,100093.81
2022-10-22T00:04:03.687Z,100090.28
2022-10-22T00:06:06.981Z,100097.22
2022-10-22T00:08:09.828Z,100103.38
2022-10-22T00:10:13.133Z,100108.13
2022-10-22T00:12:17.031Z,100100.91
2022-10-22T00:14:20.727Z,100102.59
2022-10-22T00:16:23.735Z,100101.09
2022-10-22T00:18:28.030Z,100103.47
2022-10-22T00:20:30.998Z,100109.44
2022-10-22T00:22:34.034Z,100108.00
2022-10-22T00:24:38.315Z,100107.53
2022-10-22T00:26:41.270Z,100103.72
2022-10-22T00:28:44.219Z,100122.97
2022-10-22T00:30:46.559Z,100113.09
2022-10-22T00:32:52.832Z,100124.41
2022-10-22T00:34:57.212Z,100119.06
2022-10-22T00:37:00.185Z,100118.31
2022-10-22T00:39:03.111Z,100117.38
2022-10-22T00:41:06.222Z,100112.06
2022-10-22T00:43:11.635Z,100112.69
2022-10-22T00:45:20.992Z,100118.22
2022-10-22T00:47:24.303Z,100121.19
2022-10-22T00:49:27.281Z,100119.28
2022-10-22T00:51:33.878Z,100119.38
2022-10-22T00:53:39.279Z,100125.44
2022-10-22T00:55:43.064Z,100119.06
2022-10-22T00:57:46.553Z,100118.22
2022-10-22T00:59:52.215Z,100123.25
2022-10-22T01:01:55.367Z,100115.94
2022-10-22T01:03:58.434Z,100121.31
2022-10-22T01:06:02.974Z,100113.16
2022-10-22T01:08:08.885Z,100111.44
2022-10-22T01:10:20.327Z,100114.53
2022-10-22T01:12:29.727Z,100111.09
2022-10-22T01:14:39.894Z,100101.97
2022-10-22T01:16:48.097Z,100099.31
2022-10-22T01:18:58.053Z,100108.91
2022-10-22T01:21:08.957Z,100097.91
2022-10-22T01:23:23.532Z,100100.16
2022-10-22T01:25:32.927Z,100096.66
2022-10-22T01:27:47.247Z,100099.50
2022-10-22T01:29:53.914Z,100102.25
2022-10-22T01:32:00.322Z,100100.56
2022-10-22T01:34:04.353Z,100091.81
2022-10-22T01:36:08.222Z,100090.97
2022-10-22T01:38:14.509Z,100093.06
2022-10-22T01:40:18.154Z,100087.38
2022-10-22T01:42:21.099Z,100082.06
2022-10-22T01:44:28.854Z,100094.59
2022-10-22T01:46:33.761Z,100087.38
2022-10-22T01:48:42.681Z,100084.06
2022-10-22T01:50:57.629Z,100089.47
2022-10-22T01:53:12.815Z,100088.41
2022-10-22T01:55:23.030Z,100075.09
2022-10-22T01:57:32.690Z,100071.59
2022-10-22T01:59:43.513Z,100076.91
2022-10-22T02:01:55.801Z,100068.38
2022-10-22T02:04:02.769Z,100070.09
2022-10-22T02:06:09.888Z,100063.06
2022-10-22T02:08:15.959Z,100059.19
2022-10-22T02:10:19.730Z,100055.38
2022-10-22T02:12:23.295Z,100057.19
2022-10-22T02:14:26.832Z,100057.94
2022-10-22T02:16:35.096Z,100057.84
2022-10-22T02:18:41.850Z,100060.59
2022-10-22T02:20:44.818Z,100070.69
2022-10-22T02:22:48.165Z,100068.59
2022-10-22T02:24:51.304Z,100064.25
2022-10-22T02:26:59.141Z,100076.44
2022-10-22T02:29:06.642Z,100075.66
2022-10-22T02:31:14.664Z,100072.06
2022-10-22T02:33:19.650Z,100069.91
2022-10-22T02:35:25.941Z,100083.25
2022-10-22T02:37:28.959Z,100076.41
2022-10-22T02:39:32.734Z,100077.38
2022-10-22T02:41:35.905Z,100081.72
2022-10-22T02:43:42.867Z,100090.09
2022-10-22T02:45:45.846Z,100089.53
2022-10-22T02:47:48.798Z,100087.91
2022-10-22T02:49:51.652Z,100093.31
2022-10-22T02:51:55.925Z,100095.31
2022-10-22T02:53:59.187Z,100097.41
2022-10-22T02:56:02.131Z,100087.91
2022-10-22T02:58:05.086Z,100097.88
2022-10-22T03:00:10.244Z,100096.56
2022-10-22T03:02:13.193Z,100095.22
2022-10-22T03:04:17.008Z,100102.03
2022-10-22T03:06:19.993Z,100095.28
2022-10-22T03:08:24.656Z,100096.63
2022-10-22T03:10:27.495Z,100097.94
2022-10-22T03:12:30.528Z,100098.97
2022-10-22T03:14:33.443Z,100106.00
2022-10-22T03:16:36.329Z,100099.53
2022-10-22T03:18:39.299Z,100102.44
2022-10-22T03:20:42.208Z,100109.56
2022-10-22T03:22:45.516Z,100111.56
2022-10-22T03:24:52.679Z,100114.81
2022-10-22T03:26:56.206Z,100118.97
2022-10-22T03:29:00.859Z,100121.63
2022-10-22T03:31:04.010Z,100118.59
2022-10-22T03:33:06.910Z,100117.16
2022-10-22T03:35:10.151Z,100117.56
2022-10-22T03:37:13.266Z,100115.94
2022-10-22T03:39:17.476Z,100119.91
2022-10-22T03:41:21.807Z,100125.38
2022-10-22T03:43:24.773Z,100115.88
2022-10-22T03:45:27.754Z,100123.06
2022-10-22T03:47:30.827Z,100126.16
2022-10-22T03:49:34.037Z,100126.94
2022-10-22T03:51:36.982Z,100125.28
2022-10-22T03:53:39.966Z,100125.72
2022-10-22T03:55:42.902Z,100133.69
2022-10-22T03:57:47.182Z,100131.84
2022-10-22T03:59:50.957Z,100127.19
2022-10-22T04:01:53.943Z,100125.72
2022-10-22T04:03:57.732Z,100129.16
2022-10-22T04:06:05.678Z,100129.16
2022-10-22T04:08:08.589Z,100137.88
2022-10-22T04:10:11.485Z,100143.19
2022-10-22T04:12:14.406Z,100144.44
2022-10-22T04:14:18.789Z,100150.38
2022-10-22T04:16:25.116Z,100154.38
2022-10-22T04:18:30.440Z,100155.16
2022-10-22T04:20:33.314Z,100147.69
2022-10-22T04:22:36.462Z,100153.78
2022-10-22T04:24:39.657Z,100160.63
2022-10-22T04:26:42.772Z,100158.84
2022-10-22T04:28:46.448Z,100168.13
2022-10-22T04:30:50.720Z,100165.03
2022-10-22T04:32:53.660Z,100167.59
2022-10-22T04:34:56.633Z,100169.13
2022-10-22T04:36:59.725Z,100166.28
2022-10-22T04:39:03.217Z,100165.91
2022-10-22T04:41:14.228Z,100167.63
2022-10-22T04:43:17.051Z,100163.09
2022-10-22T04:45:19.937Z,100167.34
2022-10-22T04:47:24.275Z,100163.41
2022-10-22T04:49:27.367Z,100168.50
2022-10-22T04:51:30.317Z,100164.75
2022-10-22T04:53:33.493Z,100162.09
2022-10-22T04:55:36.393Z,100167.09
2022-10-22T04:57:39.623Z,100169.59
2022-10-22T04:59:42.664Z,100171.31
2022-10-22T05:01:46.344Z,100175.84
2022-10-22T05:03:52.346Z,100165.31
2022-10-22T05:05:55.229Z,100171.94
2022-10-22T05:07:58.130Z,100171.66
2022-10-22T05:10:09.678Z,100171.94
2022-10-22T05:12:12.762Z,100171.00
2022-10-22T05:14:17.176Z,100172.13
2022-10-22T05:16:20.065Z,100181.13
2022-10-22T05:18:23.025Z,100182.84
2022-10-22T05:20:27.313Z,100184.84
2022-10-22T05:22:30.391Z,100184.44
2022-10-22T05:24:36.753Z,100179.81
2022-10-22T05:26:39.670Z,100184.09
2022-10-22T05:28:43.039Z,100185.69
2022-10-22T05:30:54.195Z,100194.16
2022-10-22T05:32:57.035Z,100196.75
2022-10-22T05:34:59.919Z,100196.81
2022-10-22T05:37:06.807Z,100196.47
2022-10-22T05:39:10.026Z,100196.25
2022-10-22T05:41:14.841Z,100199.59
2022-10-22T05:43:17.711Z,100206.34
2022-10-22T05:45:20.624Z,100202.81
2022-10-22T05:47:23.546Z,100208.63
2022-10-22T05:49:26.425Z,100202.72
2022-10-22T05:51:31.090Z,100210.44
2022-10-22T05:53:40.391Z,100212.25
2022-10-22T05:55:43.325Z,100213.69
2022-10-22T05:57:50.166Z,100217.66
2022-10-22T05:59:53.041Z,100224.31
2022-10-22T06:01:56.027Z,100230.56
2022-10-22T06:04:00.317Z,100235.97
2022-10-22T06:06:06.004Z,100234.16
2022-10-22T06:08:14.428Z,100232.28
2022-10-22T06:10:21.965Z,100224.22
2022-10-22T06:12:24.888Z,100237.25
2022-10-22T06:14:28.451Z,100235.66
2022-10-22T06:16:31.694Z,100240.84
2022-10-22T06:18:34.603Z,100240.84
2022-10-22T06:20:37.596Z,100242.72
2022-10-22T06:22:40.809Z,100250.25
2022-10-22T06:24:45.146Z,100250.44
2022-10-22T06:26:52.526Z,100246.19
2022-10-22T06:28:55.983Z,100253.00
2022-10-22T06:30:59.809Z,100255.56
2022-10-22T06:33:02.672Z,100262.78
2022-10-22T06:35:06.209Z,100264.59
2022-10-22T06:37:10.677Z,100265.56
2022-10-22T06:39:17.083Z,100267.44
2022-10-22T06:41:21.337Z,100267.56
2022-10-22T06:43:27.268Z,100266.19
2022-10-22T06:45:30.194Z,100274.09
2022-10-22T06:47:33.416Z,100280.72
2022-10-22T06:49:36.346Z,100278.56
2022-10-22T06:51:39.284Z,100274.00
2022-10-22T06:53:42.359Z,100282.66
2022-10-22T06:55:45.258Z,100287.31
2022-10-22T06:57:48.156Z,100292.66
2022-10-22T06:59:52.377Z,100291.50
2022-10-22T07:01:55.254Z,100286.81
2022-10-22T07:03:58.506Z,100285.13
2022-10-22T07:06:01.997Z,100302.22
2022-10-22T07:08:05.203Z,100302.44
2022-10-22T07:10:09.545Z,100302.78
2022-10-22T07:12:12.522Z,100302.88
2022-10-22T07:14:16.223Z,100303.16
2022-10-22T07:16:20.498Z,100306.97
2022-10-22T07:18:23.554Z,100301.00
2022-10-22T07:20:26.486Z,100304.19
2022-10-22T07:22:30.622Z,100313.13
2022-10-22T07:24:33.582Z,100310.50
2022-10-22T07:26:37.003Z,100305.69
2022-10-22T07:28:41.103Z,100309.41
2022-10-22T07:30:44.053Z,100303.03
2022-10-22T07:32:48.360Z,100293.44
2022-10-22T07:34:51.301Z,100298.22
2022-10-22T07:36:57.898Z,100300.13
2022-10-22T07:39:01.350Z,100291.69
2022-10-22T07:41:04.602Z,100296.59
2022-10-22T07:43:08.628Z,100297.88
2022-10-22T07:45:11.803Z,100306.97
2022-10-22T07:47:14.730Z,100295.66
2022-10-22T07:49:19.028Z,100298.88
2022-10-22T07:51:22.016Z,100291.19
2022-10-22T07:53:25.261Z,100296.53
2022-10-22T07:55:28.250Z,100300.34
2022-10-22T07:57:31.902Z,100300.53
2022-10-22T07:59:35.239Z,100305.88
2022-10-22T08:01:38.299Z,100303.34
2022-10-22T08:03:41.185Z,100313.16
2022-10-22T08:05:45.677Z,100310.59
2022-10-22T08:07:48.596Z,100310.38
2022-10-22T08:09:51.478Z,100298.84
2022-10-22T08:11:54.761Z,100298.81
2022-10-22T08:13:57.750Z,100303.72
2022-10-22T08:16:01.424Z,100295.38
2022-10-22T08:18:04.506Z,100286.53
2022-10-22T08:20:08.453Z,100275.63
2022-10-22T08:22:13.186Z,100281.06
2022-10-22T08:24:16.072Z,100279.69
2022-10-22T08:26:19.064Z,100283.56
2022-10-22T08:28:22.424Z,100284.91
2022-10-22T08:30:27.710Z,100280.06
2022-10-22T08:32:30.654Z,100285.72
2022-10-22T08:34:33.638Z,100289.66
2022-10-22T08:36:36.754Z,100282.59
2022-10-22T08:38:41.069Z,100290.97
2022-10-22T08:40:44.113Z,100294.31
2022-10-22T08:43:18.378Z,100305.19
2022-10-22T08:45:24.244Z,100301.59
2022-10-22T08:47:49.324Z,100308.31
2022-10-22T08:49:54.710Z,100305.31
2022-10-22T08:51:58.830Z,100314.94
2022-10-22T08:54:17.816Z,100314.84
2022-10-22T08:56:23.279Z,100316.00
2022-10-22T08:58:32.559Z,100323.75
2022-10-22T09:00:38.776Z,100331.06
2022-10-22T09:02:47.783Z,100326.56
2022-10-22T09:04:55.097Z,100320.81
2022-10-22T09:07:00.107Z,100324.41
2022-10-22T09:09:06.545Z,100331.91
2022-10-22T09:11:17.672Z,100334.81
2022-10-22T09:13:22.437Z,100337.56
2022-10-22T09:15:25.564Z,100341.97
2022-10-22T09:17:35.447Z,100341.44
2022-10-22T09:19:44.114Z,100333.66
2022-10-22T09:21:54.365Z,100362.06
2022-10-22T09:24:04.586Z,100349.78
2022-10-22T09:26:15.627Z,100351.16
2022-10-22T09:28:18.876Z,100360.88
2022-10-22T09:30:23.490Z,100350.94
2022-10-22T09:32:26.573Z,100355.75
2022-10-22T09:34:29.912Z,100364.16
2022-10-22T09:36:33.161Z,100367.03
2022-10-22T09:38:41.264Z,100363.44
2022-10-22T09:40:45.720Z,100382.19
2022-10-22T09:42:50.330Z,100388.22
2022-10-22T09:44:57.885Z,100394.75
2022-10-22T09:47:00.817Z,100394.50
2022-10-22T09:49:07.338Z,100405.16
2022-10-22T09:51:15.506Z,100399.03
2022-10-22T09:53:21.016Z,100400.53
2022-10-22T09:55:26.151Z,100407.19
2022-10-22T09:57:30.117Z,100401.63
2022-10-22T09:59:38.442Z,100405.16
2022-10-22T10:01:41.914Z,100413.44
2022-10-22T10:03:45.569Z,100411.09
2022-10-22T10:05:49.918Z,100404.31
2022-10-22T10:07:52.848Z,100403.47
2022-10-22T10:09:56.890Z,100406.88
2022-10-22T10:12:08.070Z,100408.91
2022-10-22T10:14:17.206Z,100402.31
2022-10-22T10:16:35.623Z,100402.31
2022-10-22T10:18:48.857Z,100405.44
2022-10-22T10:20:56.865Z,100411.81
2022-10-22T10:23:03.826Z,100406.06
2022-10-22T10:25:48.961Z,100407.44
2022-10-22T10:27:58.129Z,100412.44
2022-10-22T10:30:07.178Z,100412.84
2022-10-22T10:32:26.212Z,100411.13
2022-10-22T10:34:39.701Z,100426.50
2022-10-22T10:36:50.214Z,100422.94
2022-10-22T10:38:58.892Z,100421.16
2022-10-22T10:41:12.713Z,100419.97
2022-10-22T10:43:19.812Z,100427.09
2022-10-22T10:45:26.704Z,100425.41
2022-10-22T10:47:47.640Z,100429.16
2022-10-22T10:49:53.623Z,100433.25
2022-10-22T10:52:02.108Z,100441.09
2022-10-22T10:54:16.799Z,100433.41
2022-10-22T10:56:39.089Z,100445.44
2022-10-22T10:58:49.117Z,100439.19
2022-10-22T11:00:56.722Z,100429.00
2022-10-22T11:03:35.498Z,100429.44
2022-10-22T11:05:41.493Z,100432.78
2022-10-22T11:07:49.886Z,100426.13
2022-10-22T11:09:58.868Z,100426.03
2022-10-22T11:12:04.342Z,100432.66
2022-10-22T11:14:14.675Z,100428.91
2022-10-22T11:16:22.431Z,100428.78
2022-10-22T11:18:30.636Z,100430.22
2022-10-22T11:20:40.653Z,100432.78
2022-10-22T11:23:13.541Z,100436.25
2022-10-22T11:25:17.137Z,100427.19
2022-10-22T11:27:24.078Z,100426.88
2022-10-22T11:29:36.507Z,100430.19
2022-10-22T11:31:41.316Z,100428.47
2022-10-22T11:33:50.166Z,100432.88
2022-10-22T11:35:54.658Z,100424.25
2022-10-22T11:37:58.421Z,100434.72
2022-10-22T11:40:05.125Z,100436.75
2022-10-22T11:42:13.305Z,100433.44
2022-10-22T11:44:25.801Z,100435.47
2022-10-22T11:46:41.938Z,100425.44
2022-10-22T11:48:46.357Z,100420.72
2022-10-22T11:50:54.972Z,100418.81
2022-10-22T11:53:03.696Z,100424.16
2022-10-22T11:55:45.941Z,100424.59
2022-10-22T11:57:49.300Z,100422.88
2022-10-22T11:59:54.415Z,100425.25
2022-10-22T12:01:57.652Z,100426.53
2022-10-22T12:04:23.359Z,100427.38
2022-10-22T12:06:27.083Z,100429.84
2022-10-22T12:08:30.264Z,100432.69
2022-10-22T12:10:36.887Z,100429.84
2022-10-22T12:12:40.922Z,100417.97
2022-10-22T12:14:55.761Z,100433.38
2022-10-22T12:17:04.616Z,100428.03
2022-10-22T12:19:14.339Z,100429.56
2022-10-22T12:21:19.204Z,100426.97
2022-10-22T12:23:27.826Z,100425.47
2022-10-22T12:25:35.774Z,100425.47
2022-10-22T12:27:43.206Z,100421.66
2022-10-22T12:29:46.359Z,100416.31
2022-10-22T12:31:49.896Z,100418.78
2022-10-22T12:33:57.835Z,100422.19
2022-10-22T12:36:04.095Z,100420.03
2022-10-22T12:38:16.282Z,100417.16
2022-10-22T12:40:21.319Z,100421.31
2022-10-22T12:42:24.248Z,100419.09
2022-10-22T12:44:27.185Z,100427.63
2022-10-22T12:46:32.279Z,100413.19
2022-10-22T12:48:40.053Z,100414.38
2022-10-22T12:50:44.895Z,100415.34
2022-10-22T12:52:48.750Z,100421.72
2022-10-22T12:54:54.796Z,100411.41
2022-10-22T12:56:58.763Z,100415.34
2022-10-22T12:59:03.458Z,100420.47
2022-10-22T13:01:12.253Z,100431.69
2022-10-22T13:03:27.459Z,100434.00
2022-10-22T13:05:39.105Z,100426.44
2022-10-22T13:07:43.882Z,100421.84
2022-10-22T13:09:50.348Z,100427.19
2022-10-22T13:11:58.174Z,100424.84
2022-10-22T13:14:05.611Z,100420.13
2022-10-22T13:16:17.744Z,100415.00
2022-10-22T13:18:22.672Z,100421.41
2022-10-22T13:20:25.575Z,100424.50
2022-10-22T13:22:35.999Z,100418.97
2022-10-22T13:24:50.011Z,100428.69
2022-10-22T13:26:55.726Z,100423.31
2022-10-22T13:29:01.377Z,100419.25
2022-10-22T13:31:16.534Z,100420.66
2022-10-22T13:33:23.887Z,100424.91
2022-10-22T13:35:28.266Z,100417.13
2022-10-22T13:37:32.953Z,100421.75
2022-10-22T13:39:37.036Z,100419.06
2022-10-22T13:43:44.793Z,100423.34
2022-10-22T13:45:49.297Z,100421.19
2022-10-22T13:47:53.567Z,100432.09
2022-10-22T13:49:58.571Z,100435.72
2022-10-22T13:52:01.695Z,100432.53
2022-10-22T13:54:05.674Z,100434.09
2022-10-22T13:56:10.845Z,100434.09
2022-10-22T14:00:27.499Z,100439.34
2022-10-22T14:02:30.471Z,100432.81
2022-10-22T14:04:34.568Z,100445.31
2022-10-22T14:06:37.643Z,100440.31
2022-10-22T14:08:40.707Z,100447.25
2022-10-22T14:10:43.855Z,100446.41
2022-10-22T14:12:52.298Z,100448.31
2022-10-22T14:17:01.741Z,100450.44
2022-10-22T14:19:05.212Z,100456.19
2022-10-22T14:21:08.457Z,100457.81
2022-10-22T14:25:26.107Z,100455.50
2022-10-22T14:27:29.046Z,100457.97
2022-10-22T14:29:33.071Z,100461.50
2022-10-22T14:31:36.426Z,100460.03
2022-10-22T14:33:41.143Z,100462.81
2022-10-22T14:35:44.280Z,100473.22
2022-10-22T14:37:47.394Z,100456.16
2022-10-22T14:39:59.592Z,100464.00
2022-10-22T14:42:02.572Z,100459.88
2022-10-22T14:44:05.762Z,100459.44
2022-10-22T14:46:09.728Z,100464.28
2022-10-22T14:48:12.698Z,100465.38
2022-10-22T14:50:17.625Z,100465.53
2022-10-22T14:52:20.758Z,100454.03
2022-10-22T14:54:23.856Z,100459.81
2022-10-22T14:56:27.078Z,100441.25
2022-10-22T14:58:30.115Z,100454.47
2022-10-22T15:00:34.461Z,100453.38
2022-10-22T15:02:37.459Z,100455.09
2022-10-22T15:04:40.425Z,100464.59
2022-10-22T15:06:47.079Z,100462.31
2022-10-22T15:08:50.004Z,100457.31
2022-10-22T15:10:59.890Z,100457.41
2022-10-22T15:13:02.845Z,100452.72
2022-10-22T15:15:06.805Z,100452.84
2022-10-22T15:17:09.747Z,100455.91
2022-10-22T15:19:12.934Z,100451.22
2022-10-22T15:21:17.632Z,100459.44
2022-10-22T15:23:21.931Z,100463.56
2022-10-22T15:25:25.076Z,100470.31
2022-10-22T15:27:27.982Z,100461.09
2022-10-22T15:29:31.401Z,100466.78
2022-10-22T15:31:48.346Z,100459.53
2022-10-22T15:33:51.687Z,100468.31
2022-10-22T15:35:54.887Z,100460.22
2022-10-22T15:38:00.149Z,100469.44
2022-10-22T15:40:05.138Z,100469.28
2022-10-22T15:42:08.231Z,100476.69
2022-10-22T15:44:16.101Z,100479.94
2022-10-22T15:46:20.377Z,100477.16
2022-10-22T15:48:23.512Z,100480.00
2022-10-22T15:50:26.483Z,100480.88
2022-10-22T15:52:29.392Z,100489.63
2022-10-22T15:54:32.890Z,100496.13
2022-10-22T15:56:37.199Z,100489.28
2022-10-22T15:58:40.144Z,100488.75
2022-10-22T16:00:43.127Z,100481.78
2022-10-22T16:02:46.181Z,100483.47
2022-10-22T16:04:49.068Z,100477.31
2022-10-22T16:06:56.024Z,100482.09
2022-10-22T16:09:00.867Z,100481.69
2022-10-22T16:11:03.894Z,100490.53
2022-10-22T16:13:08.154Z,100491.41
2022-10-22T16:15:11.785Z,100490.56
2022-10-22T16:17:14.672Z,100500.28
2022-10-22T16:19:19.117Z,100495.13
2022-10-22T16:21:22.939Z,100500.75
2022-10-22T16:23:25.851Z,100500.00
2022-10-22T16:25:29.195Z,100503.06
2022-10-22T16:27:32.082Z,100508.00
2022-10-22T16:29:38.342Z,100511.94
2022-10-22T16:31:43.569Z,100509.44
2022-10-22T16:33:49.983Z,100514.50
2022-10-22T16:35:53.607Z,100519.06
2022-10-22T16:37:56.486Z,100525.53
2022-10-22T16:40:01.009Z,100527.78
2022-10-22T16:42:05.939Z,100532.16
2022-10-22T16:44:09.137Z,100539.63
2022-10-22T16:46:13.693Z,100537.41
2022-10-22T16:48:16.762Z,100546.72
2022-10-22T16:50:19.715Z,100548.03
2022-10-22T16:52:22.655Z,100539.38
2022-10-22T16:54:25.545Z,100548.31
2022-10-22T16:56:29.080Z,100544.97
2022-10-22T16:58:32.257Z,100547.81
2022-10-22T17:00:35.565Z,100554.25
2022-10-22T17:02:40.406Z,100554.81
2022-10-22T17:04:54.614Z,100554.03
2022-10-22T17:06:57.510Z,100554.38
2022-10-22T17:09:00.523Z,100549.50
2022-10-22T17:11:07.176Z,100550.81
2022-10-22T17:13:10.032Z,100546.69
2022-10-22T17:15:13.000Z,100559.28
2022-10-22T17:17:15.875Z,100557.91
2022-10-22T17:19:20.834Z,100564.47
2022-10-22T17:21:24.568Z,100564.97
2022-10-22T17:23:28.500Z,100559.88
2022-10-22T17:25:37.870Z,100564.59
2022-10-22T17:27:41.547Z,100565.28
2022-10-22T17:29:44.615Z,100562.66
2022-10-22T17:31:47.543Z,100564.91
2022-10-22T17:33:51.427Z,100573.03
2022-10-22T17:36:04.059Z,100579.44
2022-10-22T17:38:07.496Z,100577.31
2022-10-22T17:40:11.261Z,100585.28
2022-10-22T17:42:14.270Z,100591.59
2022-10-22T17:44:19.677Z,100586.72
2022-10-22T17:46:23.786Z,100591.53
2022-10-22T17:48:26.690Z,100592.41
2022-10-22T17:50:29.618Z,100592.50
2022-10-22T17:52:33.897Z,100597.50
2022-10-22T17:54:37.175Z,100594.56
2022-10-22T17:56:40.749Z,100602.50
2022-10-22T17:58:44.084Z,100601.25
2022-10-22T18:00:47.015Z,100605.31
2022-10-22T18:02:50.219Z,100608.59
2022-10-22T18:04:53.555Z,100610.22
2022-10-22T18:06:57.464Z,100613.47
2022-10-22T18:09:04.917Z,100611.88
2022-10-22T18:11:08.731Z,100613.19
2022-10-22T18:13:12.593Z,100609.41
2022-10-22T18:15:15.588Z,100611.97
2022-10-22T18:17:19.393Z,100611.06
2022-10-22T18:19:24.536Z,100617.06
2022-10-22T18:21:29.599Z,100603.88
2022-10-22T18:23:33.346Z,100605.75
2022-10-22T18:25:39.834Z,100614.41
2022-10-22T18:27:43.111Z,100613.47
2022-10-22T18:29:49.131Z,100612.59
2022-10-22T18:31:52.497Z,100611.06
2022-10-22T18:33:56.194Z,100615.59
2022-10-22T18:36:07.223Z,100612.69
2022-10-22T18:38:10.441Z,100610.81
2022-10-22T18:40:14.753Z,100607.84
2022-10-22T18:42:19.345Z,100608.59
2022-10-22T18:44:23.784Z,100599.53
2022-10-22T18:46:28.924Z,100613.69
2022-10-22T18:48:31.807Z,100603.06
2022-10-22T18:50:38.388Z,100611.94
2022-10-22T18:52:41.567Z,100619.00
2022-10-22T18:54:44.654Z,100618.91
2022-10-22T18:56:47.894Z,100616.16
2022-10-22T19:01:00.239Z,100604.56
2022-10-22T19:03:03.958Z,100604.44
2022-10-22T19:05:08.469Z,100602.63
2022-10-22T19:07:15.162Z,100602.53
2022-10-22T19:09:18.186Z,100598.16
2022-10-22T19:11:21.101Z,100596.47
2022-10-22T19:13:25.815Z,100596.47
2022-10-22T19:15:30.136Z,100594.13
2022-10-22T19:17:36.102Z,100598.44
2022-10-22T19:19:39.072Z,100599.34
2022-10-22T19:21:42.199Z,100603.13
2022-10-22T19:26:01.652Z,100606.19
2022-10-22T19:28:04.642Z,100602.91
2022-10-22T19:30:08.594Z,100604.97
2022-10-22T19:32:12.836Z,100608.69
2022-10-22T19:34:15.835Z,100607.16
2022-10-22T19:36:20.523Z,100612.47
2022-10-22T19:38:29.591Z,100614.34
2022-10-22T19:40:32.516Z,100617.72
2022-10-22T19:42:35.997Z,100612.41
2022-10-22T19:44:38.896Z,100612.47
2022-10-22T19:46:42.750Z,100610.75
2022-10-22T19:48:47.348Z,100612.47
2022-10-22T19:50:50.997Z,100615.94
2022-10-22T19:52:54.329Z,100603.56
2022-10-22T19:54:57.249Z,100605.59
2022-10-22T19:59:10.395Z,100608.19
2022-10-22T20:01:15.932Z,100604.66
2022-10-22T20:03:20.040Z,100604.03
2022-10-22T20:05:31.386Z,100608.59
2022-10-22T20:07:41.907Z,100608.50
2022-10-22T20:09:45.227Z,100611.25
2022-10-22T20:11:48.175Z,100615.00
2022-10-22T20:13:52.467Z,100603.13
2022-10-22T20:15:55.799Z,100602.09
2022-10-22T20:17:58.808Z,100605.00
2022-10-22T20:20:02.009Z,100607.75
2022-10-22T20:22:06.345Z,100612.34
2022-10-22T20:24:09.275Z,100617.81
2022-10-22T20:26:12.721Z,100625.94
2022-10-22T20:28:16.091Z,100616.50
2022-10-22T20:30:20.128Z,100623.66
2022-10-22T20:32:27.069Z,100624.75
2022-10-22T20:34:30.183Z,100626.59
2022-10-22T20:36:33.443Z,100626.78
2022-10-22T20:38:45.109Z,100618.88
2022-10-22T20:40:49.122Z,100627.78
2022-10-22T20:42:52.077Z,100622.63
2022-10-22T20:44:55.045Z,100613.75
2022-10-22T20:49:02.894Z,100618.44
2022-10-22T20:51:06.142Z,100614.84
2022-10-22T20:53:10.603Z,100613.03
2022-10-22T20:55:17.901Z,100604.28
2022-10-22T20:57:20.903Z,100611.56
2022-10-22T20:59:24.203Z,100612.66
2022-10-22T21:01:28.478Z,100612.13
2022-10-22T21:03:31.388Z,100617.91
2022-10-22T21:05:34.679Z,100621.19
2022-10-22T21:07:38.315Z,100622.25
2022-10-22T21:09:41.449Z,100622.78
2022-10-22T21:11:47.244Z,100621.88
2022-10-22T21:13:50.232Z,100621.00
2022-10-22T21:15:53.078Z,100622.09
2022-10-22T21:17:56.179Z,100617.66
2022-10-22T21:19:59.107Z,100624.75
2022-10-22T21:22:02.035Z,100624.66
2022-10-22T21:24:05.694Z,100617.66
2022-10-22T21:26:09.235Z,100624.47
2022-10-22T21:28:13.628Z,100613.78
2022-10-22T21:30:16.599Z,100618.91
2022-10-22T21:32:19.811Z,100621.66
2022-10-22T21:34:22.649Z,100627.81
2022-10-22T21:36:25.952Z,100623.06
2022-10-22T21:38:28.821Z,100622.91
2022-10-22T21:40:34.235Z,100618.47
2022-10-22T21:42:37.494Z,100617.59
2022-10-22T21:44:41.809Z,100613.16
2022-10-22T21:46:51.974Z,100612.28
2022-10-22T21:48:59.145Z,100614.06
2022-10-22T21:51:07.749Z,100609.47
2022-10-22T21:53:11.955Z,100613.00
2022-10-22T21:55:15.183Z,100619.97
2022-10-22T21:57:18.083Z,100615.56
2022-10-22T21:59:20.971Z,100616.41
2022-10-22T22:01:25.549Z,100617.31
2022-10-22T22:03:28.575Z,100620.47
2022-10-22T22:05:31.467Z,100621.88
2022-10-22T22:07:34.481Z,100617.13
2022-10-22T22:09:37.352Z,100622.88
2022-10-22T22:11:40.492Z,100620.63
2022-10-22T22:13:43.841Z,100617.03
2022-10-22T22:15:46.750Z,100620.84
2022-10-22T22:17:58.348Z,100619.41
2022-10-22T22:20:01.245Z,100622.69
2022-10-22T22:22:04.162Z,100618.84
2022-10-22T22:24:08.326Z,100620.34
2022-10-22T22:26:11.688Z,100611.19
2022-10-22T22:28:14.625Z,100607.59
2022-10-22T22:30:18.464Z,100610.94
2022-10-22T22:32:21.299Z,100607.41
2022-10-22T22:34:25.648Z,100603.66
2022-10-22T22:36:28.805Z,100602.63
2022-10-22T22:38:31.729Z,100591.84
2022-10-22T22:40:34.742Z,100598.00
2022-10-22T22:42:37.639Z,100598.69
2022-10-22T22:44:40.507Z,100601.13
2022-10-22T22:46:43.663Z,100599.28
2022-10-22T22:48:49.083Z,100594.50
2022-10-22T22:50:53.312Z,100588.34
2022-10-22T22:52:56.313Z,100585.69
2022-10-22T22:54:59.211Z,100586.41
2022-10-22T22:57:03.154Z,100580.91
2022-10-22T22:59:06.563Z,100573.13
2022-10-22T23:01:15.542Z,100571.53
2022-10-22T23:03:18.558Z,100579.69
2022-10-22T23:05:22.395Z,100573.31
2022-10-22T23:07:26.747Z,100570.94
2022-10-22T23:09:29.954Z,100563.91
2022-10-22T23:11:33.233Z,100566.63
2022-10-22T23:13:36.695Z,100567.75
2022-10-22T23:15:40.467Z,100569.13
2022-10-22T23:17:43.687Z,100570.56
2022-10-22T23:19:47.180Z,100570.72
2022-10-22T23:21:51.509Z,100568.28
2022-10-22T23:23:57.469Z,100573.88
2022-10-22T23:26:00.400Z,100571.53
2022-10-22T23:28:04.898Z,100575.13
2022-10-22T23:30:09.540Z,100578.75
2022-10-22T23:32:15.559Z,100566.56
2022-10-22T23:34:20.506Z,100565.00
2022-10-22T23:36:23.457Z,100562.66
2022-10-22T23:38:26.314Z,100563.94
2022-10-22T23:40:30.595Z,100568.28
2022-10-22T23:42:33.549Z,100562.69
2022-10-22T23:44:36.776Z,100557.38
2022-10-22T23:46:39.969Z,100553.06
2022-10-22T23:48:43.683Z,100552.25
2022-10-22T23:50:46.878Z,100545.19
2022-10-22T23:52:51.761Z,100552.06
2022-10-22T23:54:54.776Z,100560.91
2022-10-22T23:56:59.032Z,100560.03
2022-10-22T23:59:01.950Z,100552.25
